Graz Airport LOWG

Flugplatz Daten

Name: Graz Airport

Ident: LOWG

Lat: 46,99110031

Long: 15,43959999

Platzhöhe: 1115 ft

IataCode: GRZ

City: Graz

Homepage: http://www.flughafen-graz.at/

Metar

2021/12/03 23:20
LOWG 032320Z AUTO 26003KT 9999 0900N R16/P1500D R34/P1500D BCFG NCD M04/M06 Q1014

Taf

2021/12/03 18:21
TAF LOWG 031715Z 0318/0418 VRB02KT CAVOK TX01/0413Z TNM06/0405Z

Webcams

Airport Airport 2 Airport 3
Gewünschte Webcam nicht vorhanden? Dann fügen Sie eine hinzu. Sie wird dann so schnell wie möglich freigeschaltet
Url: Title: